INFORMACIÓN METAR y TAF
METAR FOR LEPA
ADDS - METARS form results

(0258 UTC 24 September 2021)
Data provider http://aviationweather.gov/metar/data/
 
METAR text: LEPA 240230Z 06010KT 9999 FEW020 SCT025 25/22 Q1014 NOSIG
Conditions at: LEPA (PALMA DE MALLORC, ES) observed 0230 UTC 24 September 2021
Temperature: 25.0°C (77°F)
Dewpoint: 22.0°C (72°F) [RH = 83%]
Pressure (altimeter): 29.94 inches Hg (1014.0 mb)
Winds: from the ENE (60 degrees) at 12 MPH (10 knots; 5.1 m/s)
Visibility: 6 or more miles (10+ km)
Ceiling: at least 12,000 feet AGL
Clouds: few clouds at 2000 feet AGL
scattered clouds at 2500 feet AGL
Weather: no significant weather observed at this time

METAR text: LEPA 240200Z 06009KT 9999 FEW020 SCT025 25/22 Q1014 NOSIG
Conditions at: LEPA (PALMA DE MALLORC, ES) observed 0200 UTC 24 September 2021
Temperature: 25.0°C (77°F)
Dewpoint: 22.0°C (72°F) [RH = 83%]
Pressure (altimeter): 29.94 inches Hg (1014.0 mb)
Winds: from the ENE (60 degrees) at 10 MPH (9 knots; 4.6 m/s)
Visibility: 6 or more miles (10+ km)
Ceiling: at least 12,000 feet AGL
Clouds: few clouds at 2000 feet AGL
scattered clouds at 2500 feet AGL
Weather: no significant weather observed at this time

Forecast for: LEPA (PALMA DE MALLORC, ES)
Text: TAF LEPA 232300Z 2400/2424 06012KT 9999 SCT025 TX31/2413Z TN22/2406Z
Forecast period: 0000 UTC 24 September 2021 to 0000 UTC 25 September 2021
Forecast type: FROM: standard forecast or significant change
Winds: from the ENE (60 degrees) at 14 MPH (12 knots; 6.2 m/s)
Visibility: 6 or more miles (10+ km)
Ceiling: at least 12,000 feet AGL
Clouds: scattered clouds at 2500 feet AGL
Weather: no significant weather forecast for this period

 MAPA DE AEROPUERTO

 INFORMACIÓN DE PISTA
Pista 06L Longitud 10728 ft Ancho 148 ft
Elevación 15 ft Umbral desplazado 0 ft Rumbo de pista 59
Pista 24R Longitud 10728 ft Ancho 148 ft
Elevación 8 ft Umbral desplazado 230 ft Rumbo de pista 239
Pista 06R Longitud 9842 ft Ancho 148 ft
Elevación 24 ft Umbral desplazado 1345 ft Rumbo de pista 59
Pista 24L Longitud 9842 ft Ancho 148 ft
Elevación 8 ft Umbral desplazado 0 ft Rumbo de pista 239

 FRECUANCIAS DEL AEROPUERTO
Tipo APP Nombre APP Frecuencia 118.95 MHZ
Tipo ATIS Nombre ATIS Frecuencia 119.25 MHZ
Tipo CLD Nombre CLNC DEL Frecuencia 121.6 MHZ
Tipo GND Nombre GND Frecuencia 121.7 MHZ
Tipo OPS Nombre OPS Frecuencia 130.25 MHZ
Tipo TWR Nombre TWR Frecuencia 118.3 MHZ

 RADIO AYUDAS DEL AEROPUERTO




Normativa | Spanair Virtual © 2021 |